Terminal Aerodrome Forecast
Issued by NWS Central Illinois

Home | Current Version | Previous Version | Text Only | Print | Product List | Glossary On
Versions: 1 2 3 4 5 6 7 8 9 10 11 12 13 14 15 16 17 18
000
FTUS43 KILX 241410 AAA
TAFSPI
TAF AMD
KSPI 241410Z 2414/2512 36009KT 6SM BR OVC008
      TEMPO 2414/2416 2SM BR BKN004
     FM241600 01010KT P6SM BKN025
     FM241700 01011KT P6SM BKN035
     FM250100 36007KT P6SM SCT250=

USA.gov is the U.S. government's official web portal to all federal, state and local government web resources and services.